Curcio, Margaret
United StatesWomanBorn 19652008 – 2016Runner id 50625
Events
74
2008 – 2016
Best pace
9.887
km/h · 2008
Best finish
3rd
of 60 · 2014
Distance raced
5,860
km · splits not double-counted
Pace over time
km/h · higher is faster
Pace over time: 74 races from 2008 to 2016, ranging from 2.08 to 10.26 kilometres per hour, where higher is faster. A second, age-graded series is drawn above it; the gap between the two is the age credit.
- Actual pace
- Age-graded pace
Results
| Date | Event | Distance | Result | Pace km/h | Placing |
|---|---|---|---|---|---|
| 2008-06-08 | 50km | 9:45:11 h | 5.127 | 46/63 | |
| 2008-11-09 | Peachtree City 50KUnited States | 50km | 5:03:26 h | 9.887 | 13/38 |
| 2009-05-02 | 40mi | 8:00:54 h | 8.032 | 51/90 | |
| 2009-05-16 | 8h | 71.503 km | 8.938 | 4/13 | |
| 2009-05-30 | 50km | 7:17:21 h | 6.859 | 123/212 | |
| 2009-07-18 | Lone Ranger 24 hr Ultra-MarathonUnited States | 24h | 108.868 km | 4.536 | 60/152 |
| 2009-11-08 | 50km | 5:14:40 h | 9.534 | 19/41 | |
| 2009-11-28 | 50km | 5:11:00 h | 9.646 | 12/35 | |
| 2010-03-13 | 12h | 94.951 km | 7.913 | 15/59 | |
| 2010-03-27 | 100mi | 25:12:37 h | 6.384 | 92/133 | |
| 2010-05-01 | 40mi | 7:03:33 h | 9.119 | 42/100 | |
| 2010-06-12 | Hawthorn Half Day RunUnited States | 12h | 84.812 km | 7.068 | 11/64 |
| 2010-08-07 | Hot to Trot 8 Hours RunUnited States | 8h | 53.217 km | 6.652 | 37/56 |
| 2010-11-20 | 50mi | 10:37:43 h | 7.571 | 556/1014 | |
| 2011-02-05 | 50mi | 10:30:14 h | 7.661 | 64/166 | |
| 2011-03-12 | 12h | 64.373 km | 5.364 | 42/67 | |
| 2011-04-02 | 50mi | 10:37:20 h | 7.575 | 31/103 | |
| 2011-05-29 | 50km | 6:55:00 h | 7.229 | 20/59 | |
| 2011-06-04 | 24h | 134.702 km | 5.613 | 6/41 | |
| 2011-07-16 | 50mi | 12:21:16 h | 6.513 | 61/78 | |
| 2011-08-07 | 8h | 51.273 km | 6.409 | 44/57 | |
| 2011-09-03 | 24h | 49.889 km | 2.079 | 40/56 | |
| 2011-10-08 | 100mi | 26:22:38 h | 6.101 | 38/69 | |
| 2011-11-12 | 100km | 15:50:08 h | 6.315 | 64/126 | |
| 2011-12-10 | 100km | 15:49:15 h | 6.321 | 12/25 | |
| 2011-12-17 | 50mi | 12:42:16 h | 6.334 | 119/156 | |
| 2012-01-08 | 50km | 7:05:50 h | 7.045 | 37/67 | |
| 2012-01-14 | 12h | 52.303 km | 4.359 | 4/7 | |
| 2012-01-28 | 50km | 7:05:26 h | 7.052 | 179/277 | |
| 2012-02-25 | 50km | 7:01:46 h | 7.113 | 89/179 | |
| 2012-03-03 | 50mi | 11:27:04 h | 7.027 | 68/80 | |
| 2012-04-21 | 50km | 7:29:18 h | 6.677 | 105/194 | |
| 2012-05-06 | 50km | 5:36:30 h | 8.915 | 7/92 | |
| 2012-06-02 | Black Mountain Monster 24 Hour RunUnited States | 24h | 154.657 km | 6.444 | 3/37 |
| 2012-07-21 | 100mi | 27:25:05 h | 5.870 | 180/218 | |
| 2012-08-18 | 100mi | 19:35:50 h | 8.212 | 13/45 | |
| 2012-09-01 | 24h | 107.826 km | 4.493 | 12/26 | |
| 2012-09-22 | 100mi | 29:00:35 h | 5.548 | 8/18 | |
| 2013-01-19 | 12hrs of HOSTELityUnited States | 12h | 71.133 km | 5.928 | 5/17 |
| 2013-01-26 | 50km | 6:52:03 h | 7.281 | 162/285 | |
| 2013-02-23 | 50km | 6:48:30 h | 7.344 | 74/197 | |
| 2013-03-09 | 33mi | 7:27:50 h | 7.115 | 52/103 | |
| 2013-04-13 | 50mi | 11:44:55 h | 6.849 | 233/296 | |
| 2013-06-01 | 50km | 7:48:10 h | 6.408 | 32/44 | |
| 2013-07-06 | 24h | 50.993 km | 2.125 | 33/34 | |
| 2013-08-03 | 8h | 49.429 km | 6.179 | 67/77 | |
| 2013-08-10 | Laurel Valley 35 MilesUnited States | 35mi | 10:47:16 h | 5.221 | 34/52 |
| 2013-09-21 | 100mi | 32:26:43 h | 4.960 | 22/32 | |
| 2013-09-28 | 50km | 7:32:14 h | 6.634 | 58/169 | |
| 2013-10-19 | 50km | 6:25:30 h | 7.782 | 20/59 |
Showing 1–50 of 74